Aérodrome :
LOGIN :

S'inscrire | Disclaimer

   EN    FR    IT 

 










Légende :    VFR   VFR Marginal   IFR   IFR Intensif   IFR Très Intensif
Visi : 
Plafond : 
>= 8 km
>= 3000ft
5 à 8 km
1000 à 3000 ft
1500m à 5 km
500 à 1000 ft
800 à 1500m
200 à 500 ft
< 800m
< 200 ft
Symboles :   Orages  Brouillard  Fortes neiges  Fortes précipitations  Vent > 20 kt
SIGMETs :   Divers  Orages  Givrage  Turbulence  Onde Orograph.  Cendres Volcan.






- Altitude de l'aérodrome : 622 ft
- Code IATA : BRS


EGGD - Bristol Int.

DERNIER METAR :
  • 272150Z AUTO 17006KT 2800 RA BKN002/// OVC015/// //////TCU 09/09 Q1007 REDZ

METARs EXPIRÉS :
  • 272120Z AUTO 17006KT 2300 DZ FEW004 OVC008 09/09 Q1008
  • 272050Z AUTO 15004KT 9999 BKN004 BKN011 OVC045 09/09 Q1008
  • 272020Z AUTO 18005KT 9999 -RA BKN004/// BKN011/// OVC040/// //////TCU 09/09 Q1009
  • 271950Z AUTO 17005KT 6000 -RA FEW010/// SCT046/// //////TCU 09/09 Q1009 RERA
  • 271920Z AUTO 18005KT 1900 RA VV/// 09/09 Q1009

TAF AMD TAF EGGD
Valide du 27 à 21h jusqu'au 28 à 18h UTC


272102Z 2721/2818 15004KT 0200 -RADZ FG OVC000
TEMPO 2721/2802 4000 RADZ SCT002 BKN005
PROB40
TEMPO 2721/2724 9999 NSW SCT003 BKN020
PROB30
TEMPO 2722/2802 +RA
BECMG 2800/2802 21010KT 7000 NSW BKN005
BECMG 2802/2805 27015KT
TEMPO 2802/2808 3000 SHRA BKN003
PROB30
TEMPO 2804/2808 BKN001
TEMPO 2806/2814 26018G30KT
BECMG 2808/2810 9999 SCT006
TEMPO 2810/2818 BKN006
BECMG 2815/2818 20010KT
PROB40
TEMPO 2817/2818 4000 RA
ATIS : +44 1275 473 666



MET'MAP, la Météo Aéronautique d'un coup d'oeil ! - Copyright ORBIFLY Décembre 2007 - Disclaimer

ORBIFLY MET'MAP TEAM :

Programmation & Développement : Alexandra Zaïnal
Sur une idée originale de : Baudouin d'Aumeries
Assistance à la programmation : Marc-Olivier Méhu
Soutien technique & logistique : Manuel Goepfert

Contact : metmap@orbifly.com




SOURCES & CREDITS :

   NOAA